Gatesville, TX (76596)

3:34 PM CDT on August 30, 2014 (GMT -0500)
Rhudys on Cedar Ridge | Change Station
CLOSE
Current Station
Personal Weather Station
Location: Gatesville, TX
Elevation: 1043 ft
Nearby Weather Stations

Elev 1043 ft 31.45 °N, 97.70 °W | Updated 3 seconds ago

Haze
Haze
97.8 °F
Feels Like 104 °F
N
3.5
Wind Variable Wind from South
Gusts 3.5 mph

Today
High -- | Low -- °F
--% Chance of Precip.
Yesterday
High -- | Low -- °F
Precip. -- in
7:05 AM 7:57 PM
Waxing Crescent, 24% visible
Pressure 29.92 in
Visibility 6.0 miles
Clouds Clear
Heat Index 104 °F
Dew Point 69 °F
Humidity 40%
Rainfall 0.00 in
Snow Depth Not available.
UV 9 out of 12
Pollen 8.80 out of 12
Ozone Good
PM2.5 Good
Flu Activity Not available.
METAR KGOP 302010Z AUTO 10007KT 6SM HZ CLR 34/21 A2992 RMK AO2

More Conditions Fewer Conditions

Pressure 29.92 in
Visibility 6.0 miles
Clouds Clear
Heat Index 104 °F
Dew Point 69 °F
Humidity 40%
Rainfall 0.00 in
Snow Depth Not available.
UV 9 out of 12
Pollen 8.80 out of 12
Ozone Good
PM2.5 Good
Flu Activity Not available.
METAR KGOP 302010Z AUTO 10007KT 6SM HZ CLR 34/21 A2992 RMK AO2

More Conditions Fewer Conditions

Nowcast | as of 2:25 PM CDT on August 30, 2014

Isolated showers and thunderstorms between Mineral Wells...Brownwood and Gatesville were moving southeast at 10 to 15 mph. Additional development of isolated showers and thunderstorms is expected this afternoon. Some of the storms will produce strong gusty winds...as well as cloud to ground lightning and brief heavy rain. Otherwise...expect partly to mostly sunny skies with temperatures rising into the upper 80s to mid 90s by 4 PM.

×

10-Day Weather Forecast

Almanac

Astronomy

Aug. 30, 2014 Rise Set
Actual Time 7:05 AM CDT 7:57 PM CDT
Civil Twilight 6:40 AM CDT 8:21 PM CDT
Nautical Twilight 6:11 AM CDT 8:51 PM CDT
Astronomical Twilight 5:41 AM CDT 9:21 PM CDT
Moon 11:34 AM CDT 10:53 PM CDT
Length of Visible Light 13h 41m
Length of Day
12h 51m
Tomorrow will be 1m 50s shorter.
Waxing Crescent, 24% of the Moon is Illuminated
Today
Waxing Crescent
Sep 2
First Quarter
Sep 8
Full
Sep 15
Last Quarter
Sep 24
New

Today's Extremes

State Highs State Lows

Community

WunderPhotos

Upload Photos

1,748,623 photos uploaded!

WunderBlogs® & News

Nearby

Air Quality

  Air Quality AQ Index Pollutant
Yesterday Good
OZONE
Yesterday Good
PM2.5
Current Good
OZONE
Current Good
PM2.5
Saturday Good
PM10
Saturday Good
OZONE
Sunday Good
PM10
Sunday Good
OZONE
Monday Good
PM10
Monday Good
OZONE
Tuesday Good
PM10
Tuesday Good
OZONE

Snow Depth

Station Depth Elevation
No new snow has been reported.

Earthquake Activity

City Distance Mag. Time & Date
No recent earthquake activity has been reported nearby.
Minimum magnitude displayed is 2.5.

Coastal Water Temperatures

Place Temperature
No Stations Reporting

Nearby Weather Stations